Wiesenburg, Germany

9:37 AM CEST on June 02, 2015 (GMT +0200)
Fläming | | Change Station
CLOSE
Current Station
Personal Weather Station
Location: Golzow, BRANDENBURG
Elevation: 141 ft
Nearby Weather Stations

Elev 141 ft 52.28 °N, 12.61 °E | Updated 8 minutes ago

Partly Cloudy
Partly Cloudy
63.4 °F
Feels Like 63.4 °F
N
6.0
Wind Variable Wind from SSW
Gusts 11.0 mph

Today
High -- | Low -- °F
--% Chance of Precip.
Yesterday
High -- | Low -- °F
Precip. -- in
4:55 AM 9:21 PM
Full, 100% visible
Pressure 29.98 in
Visibility 6.2 miles
Clouds Few 3000 ft
Dew Point 53 °F
Humidity 68%
Rainfall 0.00 in
Snow Depth Not available.
UV 2.1 out of 12
Pollen Not available.
Air Quality Not available.
Flu Activity Not available.
METAR ETSH 020720Z 23013KT 9999 FEW030 17/09 Q1015 BLU+BLU+ TEMPO BLU

More Conditions Fewer Conditions

Pressure 29.98 in
Visibility 6.2 miles
Clouds Few 3000 ft
Dew Point 53 °F
Humidity 68%
Rainfall 0.00 in
Snow Depth Not available.
UV 2.1 out of 12
Pollen Not available.
Air Quality Not available.
Flu Activity Not available.
METAR ETSH 020720Z 23013KT 9999 FEW030 17/09 Q1015 BLU+BLU+ TEMPO BLU

More Conditions Fewer Conditions

10-Day Weather Forecast

Almanac

Astronomy

Jun. 02, 2015 Rise Set
Actual Time
Civil Twilight
Nautical Twilight
Astronomical Twilight
Moon
Length of Visible Light
Length of Day
Tomorrow will be .
, % of the Moon is Illuminated

Today's Extremes

Country Highs Country Lows

Community

WunderPhotos

Upload Photos

1,825,921 photos uploaded!

WunderBlogs® & News

Nearby

Air Quality

  Air Quality AQ Index Pollutant
Not available.

Snow Depth

Station Depth Elevation

Earthquake Activity

City Distance Mag. Time & Date
Minimum magnitude displayed is 2.5.

Coastal Water Temperatures

Place Temperature

Stations

Nearby Weather Stations

Station Location Temp. Windchill Dew Point Humidity Wind Precip. Elev Updated Type